createdAt,value
2022-07-28T00:00:52.266Z,99.90
2022-07-28T00:03:22.551Z,99.90
2022-07-28T00:05:51.090Z,99.90
2022-07-28T00:08:21.295Z,99.90
2022-07-28T00:10:51.234Z,99.90
2022-07-28T00:13:21.164Z,99.90
2022-07-28T00:15:52.575Z,99.90
2022-07-28T00:18:21.123Z,99.90
2022-07-28T00:20:52.657Z,99.90
2022-07-28T00:23:21.200Z,99.90
2022-07-28T00:25:49.593Z,99.90
2022-07-28T00:28:17.959Z,99.90
2022-07-28T00:30:47.617Z,99.90
2022-07-28T00:33:15.927Z,99.90
2022-07-28T00:35:48.435Z,99.90
2022-07-28T00:38:17.138Z,99.90
2022-07-28T00:41:02.654Z,99.90
2022-07-28T00:43:31.114Z,99.90
2022-07-28T00:46:03.992Z,99.90
2022-07-28T00:48:32.342Z,99.90
2022-07-28T00:51:00.702Z,99.90
2022-07-28T00:53:28.956Z,99.90
2022-07-28T00:56:03.517Z,99.90
2022-07-28T00:58:38.567Z,99.90
2022-07-28T01:01:08.507Z,99.90
2022-07-28T01:03:40.619Z,99.90
2022-07-28T01:06:14.204Z,99.90
2022-07-28T01:08:49.299Z,99.90
2022-07-28T01:11:24.293Z,99.90
2022-07-28T01:13:59.680Z,99.90
2022-07-28T01:16:31.007Z,99.90
2022-07-28T01:19:02.930Z,99.90
2022-07-28T01:21:42.697Z,99.90
2022-07-28T01:24:16.689Z,99.90
2022-07-28T01:26:53.065Z,99.90
2022-07-28T01:29:33.603Z,99.90
2022-07-28T01:32:04.762Z,99.90
2022-07-28T01:34:35.829Z,99.90
2022-07-28T01:37:06.770Z,99.90
2022-07-28T01:39:43.625Z,99.90
2022-07-28T01:42:17.959Z,99.90
2022-07-28T01:44:47.322Z,99.90
2022-07-28T01:47:17.029Z,99.90
2022-07-28T01:49:45.464Z,99.90
2022-07-28T01:52:16.090Z,99.90
2022-07-28T01:54:46.009Z,99.90
2022-07-28T01:57:15.913Z,99.90
2022-07-28T01:59:45.519Z,99.90
2022-07-28T02:02:17.445Z,99.90
2022-07-28T02:04:47.715Z,99.90
2022-07-28T02:07:16.464Z,99.90
2022-07-28T02:09:45.200Z,99.90
2022-07-28T02:12:15.402Z,99.90
2022-07-28T02:14:43.723Z,99.90
2022-07-28T02:17:16.154Z,99.90
2022-07-28T02:19:44.500Z,99.90
2022-07-28T02:22:17.724Z,99.90
2022-07-28T02:24:46.303Z,99.90
2022-07-28T02:27:22.683Z,99.90
2022-07-28T02:30:09.534Z,99.90
2022-07-28T02:32:42.032Z,99.90
2022-07-28T02:35:16.692Z,99.90
2022-07-28T02:37:55.520Z,99.90
2022-07-28T02:40:23.946Z,99.90
2022-07-28T02:42:52.781Z,99.90
2022-07-28T02:45:22.835Z,99.90
2022-07-28T02:47:53.694Z,99.90
2022-07-28T02:50:23.489Z,99.90
2022-07-28T02:52:55.447Z,99.90
2022-07-28T02:55:23.807Z,99.90
2022-07-28T02:57:56.820Z,99.90
2022-07-28T03:00:25.492Z,99.90
2022-07-28T03:02:54.591Z,99.90
2022-07-28T03:05:23.404Z,99.90
2022-07-28T03:07:53.938Z,99.90
2022-07-28T03:10:32.779Z,99.90
2022-07-28T03:13:11.819Z,99.90
2022-07-28T03:15:41.023Z,99.90
2022-07-28T03:18:09.305Z,99.90
2022-07-28T03:20:41.994Z,99.90
2022-07-28T03:23:17.907Z,99.90
2022-07-28T03:25:49.977Z,99.90
2022-07-28T03:28:19.732Z,99.90
2022-07-28T03:30:52.298Z,99.90
2022-07-28T03:33:20.782Z,99.90
2022-07-28T03:35:51.921Z,99.90
2022-07-28T03:38:23.700Z,99.90
2022-07-28T03:40:55.448Z,99.90
2022-07-28T03:43:25.238Z,99.90
2022-07-28T03:45:53.546Z,99.90
2022-07-28T03:48:29.722Z,99.90
2022-07-28T03:50:58.175Z,99.90
2022-07-28T03:53:29.624Z,99.90
2022-07-28T03:55:58.444Z,99.90
2022-07-28T03:58:29.868Z,99.90
2022-07-28T04:00:59.484Z,99.90
2022-07-28T04:06:40.786Z,99.90
2022-07-28T04:09:25.621Z,99.90
2022-07-28T04:11:53.976Z,99.90
2022-07-28T04:14:24.839Z,99.90
2022-07-28T04:16:53.845Z,99.90
2022-07-28T04:19:22.316Z,99.90
2022-07-28T04:21:53.441Z,99.90
2022-07-28T04:24:26.072Z,99.90
2022-07-28T04:27:07.268Z,99.90
2022-07-28T04:29:40.827Z,99.90
2022-07-28T04:32:09.288Z,99.90
2022-07-28T04:34:40.360Z,99.90
2022-07-28T04:37:09.607Z,99.90
2022-07-28T04:39:38.117Z,99.90
2022-07-28T04:42:11.641Z,99.90
2022-07-28T04:44:42.703Z,99.90
2022-07-28T04:47:13.280Z,99.90
2022-07-28T04:49:41.591Z,99.90
2022-07-28T04:52:10.148Z,99.90
2022-07-28T04:54:40.968Z,99.90
2022-07-28T04:57:24.712Z,99.90
2022-07-28T04:59:56.655Z,99.90
2022-07-28T05:02:25.345Z,99.90
2022-07-28T05:04:53.686Z,99.90
2022-07-28T05:07:33.894Z,99.90
2022-07-28T05:10:02.267Z,99.90
2022-07-28T05:12:32.086Z,99.90
2022-07-28T05:15:00.760Z,99.90
2022-07-28T05:17:44.304Z,99.90
2022-07-28T05:20:17.565Z,99.90
2022-07-28T05:22:51.062Z,99.90
2022-07-28T05:25:22.921Z,99.90
2022-07-28T05:27:55.913Z,99.90
2022-07-28T05:30:27.315Z,99.90
2022-07-28T05:33:02.030Z,99.90
2022-07-28T05:35:32.286Z,99.90
2022-07-28T05:38:00.893Z,99.90
2022-07-28T05:40:31.703Z,99.90
2022-07-28T05:43:01.521Z,99.90
2022-07-28T05:45:34.135Z,99.90
2022-07-28T05:48:02.630Z,99.90
2022-07-28T05:50:30.950Z,99.90
2022-07-28T05:53:00.941Z,99.90
2022-07-28T05:55:29.434Z,99.90
2022-07-28T05:58:01.693Z,99.90
2022-07-28T06:00:33.691Z,99.90
2022-07-28T06:03:03.123Z,99.90
2022-07-28T06:05:31.767Z,99.90
2022-07-28T06:08:00.209Z,99.90
2022-07-28T06:10:51.993Z,99.90
2022-07-28T06:13:27.350Z,99.90
2022-07-28T06:15:55.742Z,99.90
2022-07-28T06:18:23.983Z,99.90
2022-07-28T06:20:55.055Z,99.90
2022-07-28T06:23:23.898Z,99.90
2022-07-28T06:25:55.401Z,99.90
2022-07-28T06:28:25.163Z,99.90
2022-07-28T06:31:08.228Z,99.90
2022-07-28T06:33:39.516Z,99.90
2022-07-28T06:36:08.223Z,99.90
2022-07-28T06:38:39.145Z,99.90
2022-07-28T06:41:09.785Z,99.90
2022-07-28T06:43:39.579Z,99.90
2022-07-28T06:46:08.047Z,99.90
2022-07-28T06:48:46.117Z,99.90
2022-07-28T06:51:23.351Z,99.90
2022-07-28T06:53:56.069Z,99.90
2022-07-28T06:56:25.175Z,99.90
2022-07-28T06:59:01.426Z,99.90
2022-07-28T07:01:30.229Z,99.90
2022-07-28T07:03:58.713Z,99.90
2022-07-28T07:06:27.099Z,99.90
2022-07-28T07:08:57.800Z,99.90
2022-07-28T07:11:38.304Z,99.90
2022-07-28T07:14:19.523Z,99.90
2022-07-28T07:16:48.334Z,99.90
2022-07-28T07:19:20.837Z,99.90
2022-07-28T07:21:52.265Z,99.90
2022-07-28T07:24:22.684Z,99.90
2022-07-28T07:26:51.596Z,99.90
2022-07-28T07:29:25.556Z,99.90
2022-07-28T07:31:59.208Z,99.90
2022-07-28T07:34:28.109Z,99.90
2022-07-28T07:36:56.625Z,99.90
2022-07-28T07:39:25.163Z,99.90
2022-07-28T07:41:59.144Z,99.90
2022-07-28T07:44:31.721Z,99.90
2022-07-28T07:47:01.575Z,99.90
2022-07-28T07:49:43.460Z,99.90
2022-07-28T07:52:33.898Z,99.90
2022-07-28T07:55:04.769Z,99.90
2022-07-28T07:57:33.488Z,99.90
2022-07-28T08:00:03.411Z,99.90
2022-07-28T08:02:33.925Z,99.90
2022-07-28T08:05:02.802Z,99.90
2022-07-28T08:07:31.529Z,99.90
2022-07-28T08:09:59.970Z,99.90
2022-07-28T08:12:28.353Z,99.90
2022-07-28T08:14:56.689Z,99.90
2022-07-28T08:17:26.626Z,99.90
2022-07-28T08:19:55.091Z,99.90
2022-07-28T08:22:23.472Z,99.90
2022-07-28T08:24:52.032Z,99.90
2022-07-28T08:27:20.330Z,99.90
2022-07-28T08:29:50.214Z,99.90
2022-07-28T08:32:18.540Z,99.90
2022-07-28T08:34:48.199Z,99.90
2022-07-28T08:37:16.516Z,99.90
2022-07-28T08:39:45.021Z,99.90
2022-07-28T08:42:15.216Z,99.90
2022-07-28T08:44:48.598Z,99.90
2022-07-28T08:47:17.489Z,99.90
2022-07-28T08:49:47.195Z,99.90
2022-07-28T08:52:18.750Z,99.90
2022-07-28T08:54:47.449Z,99.90
2022-07-28T08:57:18.752Z,99.90
2022-07-28T08:59:47.496Z,99.90
2022-07-28T09:02:15.959Z,99.90
2022-07-28T09:04:46.302Z,99.90
2022-07-28T09:07:16.466Z,99.90
2022-07-28T09:09:45.084Z,99.90
2022-07-28T09:12:13.550Z,99.90
2022-07-28T09:14:41.863Z,99.90
2022-07-28T09:17:10.412Z,99.90
2022-07-28T09:19:39.964Z,99.90
2022-07-28T09:22:12.923Z,99.90
2022-07-28T09:24:44.653Z,99.90
2022-07-28T09:27:13.775Z,99.90
2022-07-28T09:29:44.227Z,99.90
2022-07-28T09:32:14.362Z,99.90
2022-07-28T09:34:42.881Z,99.90
2022-07-28T09:37:26.789Z,99.90
2022-07-28T09:39:59.561Z,99.90
2022-07-28T09:42:27.948Z,99.90
2022-07-28T09:45:23.665Z,99.90
2022-07-28T09:48:14.808Z,99.90
2022-07-28T09:50:44.249Z,99.90
2022-07-28T09:53:24.414Z,99.90
2022-07-28T09:56:02.015Z,99.90
2022-07-28T09:58:33.381Z,99.90
2022-07-28T10:01:07.202Z,99.90
2022-07-28T10:03:36.533Z,99.90
2022-07-28T10:06:08.533Z,99.90
2022-07-28T10:08:46.826Z,99.90
2022-07-28T10:11:21.796Z,99.90
2022-07-28T10:13:58.375Z,99.90
2022-07-28T10:16:33.742Z,99.90
2022-07-28T10:19:03.007Z,99.90
2022-07-28T10:21:32.910Z,99.90
2022-07-28T10:24:03.537Z,99.90
2022-07-28T10:26:34.076Z,99.90
2022-07-28T10:29:07.457Z,99.90
2022-07-28T10:31:42.672Z,99.90
2022-07-28T10:34:16.014Z,99.90
2022-07-28T10:36:46.243Z,99.90
2022-07-28T10:39:21.329Z,99.90
2022-07-28T10:41:52.059Z,99.90
2022-07-28T10:44:20.960Z,99.90
2022-07-28T10:46:49.407Z,99.90
2022-07-28T10:49:20.981Z,99.90
2022-07-28T10:52:19.744Z,99.90
2022-07-28T10:54:41.148Z,99.90
2022-07-28T10:57:12.344Z,99.90
2022-07-28T11:00:13.171Z,99.90
2022-07-28T11:02:51.476Z,99.90
2022-07-28T11:05:35.782Z,99.90
2022-07-28T11:08:07.220Z,99.90
2022-07-28T11:10:48.885Z,99.90
2022-07-28T11:13:37.046Z,99.90
2022-07-28T11:16:24.958Z,99.90
2022-07-28T11:19:08.069Z,99.90
2022-07-28T11:22:28.457Z,99.90
2022-07-28T11:25:22.406Z,99.90
2022-07-28T11:28:06.142Z,99.90
2022-07-28T11:30:58.416Z,99.90
2022-07-28T11:33:29.225Z,99.90
2022-07-28T11:35:58.438Z,99.90
2022-07-28T11:38:27.490Z,99.90
2022-07-28T11:40:57.270Z,99.90
2022-07-28T11:43:36.965Z,99.90
2022-07-28T11:46:29.753Z,99.90
2022-07-28T11:49:21.786Z,99.90
2022-07-28T11:52:09.434Z,99.90
2022-07-28T11:54:38.850Z,99.90
2022-07-28T11:57:20.686Z,99.90
2022-07-28T11:59:53.393Z,99.90
2022-07-28T12:02:27.580Z,99.90
2022-07-28T12:05:03.065Z,99.90
2022-07-28T12:07:37.807Z,99.80
2022-07-28T12:10:51.854Z,99.40
2022-07-28T12:13:16.019Z,99.00
2022-07-28T12:15:53.697Z,99.00
2022-07-28T12:18:25.151Z,99.00
2022-07-28T12:20:55.099Z,99.00
2022-07-28T12:23:46.238Z,98.80
2022-07-28T12:26:40.671Z,98.60
2022-07-28T12:29:11.620Z,98.60
2022-07-28T12:31:41.707Z,98.00
2022-07-28T12:34:13.659Z,97.70
2022-07-28T12:36:43.224Z,97.60
2022-07-28T12:39:13.316Z,97.20
2022-07-28T12:41:41.770Z,97.20
2022-07-28T12:44:13.254Z,97.00
2022-07-28T12:46:48.859Z,96.60
2022-07-28T12:49:26.905Z,96.40
2022-07-28T12:51:55.266Z,96.70
2022-07-28T12:54:38.638Z,97.20
2022-07-28T12:57:09.904Z,96.80
2022-07-28T12:59:40.041Z,97.00
2022-07-28T13:02:09.768Z,96.60
2022-07-28T13:04:46.892Z,96.30
2022-07-28T13:07:30.400Z,96.40
2022-07-28T13:10:12.677Z,96.50
2022-07-28T13:12:41.464Z,96.50
2022-07-28T13:15:17.206Z,96.80
2022-07-28T13:17:55.168Z,96.70
2022-07-28T13:20:25.904Z,96.70
2022-07-28T13:22:54.548Z,96.60
2022-07-28T13:25:23.364Z,96.40
2022-07-28T13:27:55.570Z,96.20
2022-07-28T13:30:24.539Z,96.20
2022-07-28T13:32:54.879Z,96.10
2022-07-28T13:35:25.535Z,96.30
2022-07-28T13:38:01.090Z,96.30
2022-07-28T13:40:30.499Z,96.30
2022-07-28T13:42:58.841Z,95.90
2022-07-28T13:45:30.226Z,96.00
2022-07-28T13:47:59.143Z,96.20
2022-07-28T13:50:28.856Z,96.30
2022-07-28T13:52:57.265Z,96.20
2022-07-28T13:55:27.293Z,96.20
2022-07-28T13:57:56.602Z,96.10
2022-07-28T14:00:29.471Z,95.80
2022-07-28T14:02:58.049Z,95.90
2022-07-28T14:05:32.188Z,96.00
2022-07-28T14:08:06.821Z,95.90
2022-07-28T14:10:48.340Z,95.80
2022-07-28T14:13:16.960Z,96.10
2022-07-28T14:15:47.191Z,96.40
2022-07-28T14:18:15.691Z,96.50
2022-07-28T14:20:47.006Z,96.80
2022-07-28T14:23:18.401Z,97.10
2022-07-28T14:25:49.623Z,97.40
2022-07-28T14:28:19.074Z,97.50
2022-07-28T14:30:51.078Z,97.70
2022-07-28T14:33:19.502Z,97.90
2022-07-28T14:35:47.746Z,98.00
2022-07-28T14:41:06.142Z,97.90
2022-07-28T14:43:34.486Z,98.10
2022-07-28T14:46:16.235Z,98.20
2022-07-28T14:48:46.391Z,98.20
2022-07-28T14:51:20.916Z,98.10
2022-07-28T14:53:55.335Z,98.00
2022-07-28T14:56:26.615Z,98.00
2022-07-28T14:58:57.616Z,98.20
2022-07-28T15:01:29.205Z,98.10
2022-07-28T15:04:04.803Z,97.80
2022-07-28T15:06:33.306Z,97.70
2022-07-28T15:09:03.012Z,97.70
2022-07-28T15:11:36.034Z,97.70
2022-07-28T15:14:06.123Z,97.90
2022-07-28T15:16:36.871Z,97.90
2022-07-28T15:19:05.825Z,98.10
2022-07-28T15:21:36.431Z,98.40
2022-07-28T15:24:07.417Z,98.80
2022-07-28T15:26:36.177Z,99.20
2022-07-28T15:29:04.707Z,99.50
2022-07-28T15:31:32.947Z,99.70
2022-07-28T15:34:01.299Z,99.80
2022-07-28T15:36:30.366Z,99.90
2022-07-28T15:39:02.122Z,99.90
2022-07-28T15:41:33.280Z,99.90
2022-07-28T15:44:01.746Z,99.90
2022-07-28T15:46:30.115Z,99.90
2022-07-28T15:49:00.491Z,99.90
2022-07-28T15:51:28.707Z,99.90
2022-07-28T15:54:00.719Z,99.90
2022-07-28T15:56:29.551Z,99.90
2022-07-28T15:58:59.485Z,99.90
2022-07-28T16:01:27.945Z,99.90
2022-07-28T16:03:56.434Z,99.90
2022-07-28T16:06:24.961Z,99.90
2022-07-28T16:08:56.053Z,99.90
2022-07-28T16:11:24.437Z,99.90
2022-07-28T16:13:52.814Z,99.90
2022-07-28T16:16:22.750Z,99.90
2022-07-28T16:18:58.845Z,99.90
2022-07-28T16:21:27.424Z,99.90
2022-07-28T16:24:03.582Z,99.90
2022-07-28T16:26:33.357Z,99.90
2022-07-28T16:29:02.604Z,99.90
2022-07-28T16:31:32.869Z,99.90
2022-07-28T16:34:01.243Z,99.90
2022-07-28T16:36:30.156Z,99.90
2022-07-28T16:39:01.004Z,99.90
2022-07-28T16:41:47.797Z,99.90
2022-07-28T16:44:17.291Z,99.90
2022-07-28T16:46:50.279Z,99.90
2022-07-28T16:49:21.674Z,99.90
2022-07-28T16:51:52.999Z,99.90
2022-07-28T16:54:21.264Z,99.90
2022-07-28T16:56:50.180Z,99.90
2022-07-28T16:59:18.548Z,99.90
2022-07-28T17:01:48.960Z,99.90
2022-07-28T17:04:17.831Z,99.90
2022-07-28T17:06:49.807Z,99.90
2022-07-28T17:09:18.432Z,99.90
2022-07-28T17:11:46.755Z,99.90
2022-07-28T17:14:19.081Z,99.90
2022-07-28T17:16:48.987Z,99.90
2022-07-28T17:19:18.594Z,99.90
2022-07-28T17:21:46.977Z,99.90
2022-07-28T17:24:16.014Z,99.90
2022-07-28T17:29:36.094Z,99.90
2022-07-28T17:32:09.620Z,99.90
2022-07-28T17:34:40.207Z,99.90
2022-07-28T17:37:08.617Z,99.90
2022-07-28T17:39:36.954Z,99.90
2022-07-28T17:42:08.578Z,99.90
2022-07-28T17:44:40.360Z,99.90
2022-07-28T17:47:10.203Z,99.90
2022-07-28T17:49:42.197Z,99.90
2022-07-28T17:52:19.742Z,99.90
2022-07-28T17:55:05.464Z,99.90
2022-07-28T17:57:37.743Z,99.90
2022-07-28T18:00:09.548Z,99.90
2022-07-28T18:02:39.636Z,99.90
2022-07-28T18:05:11.599Z,99.90
2022-07-28T18:07:49.094Z,99.90
2022-07-28T18:10:24.838Z,99.90
2022-07-28T18:12:53.910Z,99.90
2022-07-28T18:15:27.748Z,99.90
2022-07-28T18:18:02.146Z,99.90
2022-07-28T18:20:30.489Z,99.90
2022-07-28T18:22:59.248Z,99.90
2022-07-28T18:25:30.319Z,99.90
2022-07-28T18:27:59.828Z,99.90
2022-07-28T18:30:31.236Z,99.90
2022-07-28T18:33:09.875Z,99.90
2022-07-28T18:35:40.477Z,99.90
2022-07-28T18:38:09.137Z,99.90
2022-07-28T18:40:40.050Z,99.90
2022-07-28T18:43:12.689Z,99.90
2022-07-28T18:45:44.587Z,99.90
2022-07-28T18:48:15.788Z,99.90
2022-07-28T18:50:44.176Z,99.90
2022-07-28T18:53:13.125Z,99.90
2022-07-28T18:55:42.301Z,99.90
2022-07-28T18:58:10.642Z,99.90
2022-07-28T19:00:38.904Z,99.90
2022-07-28T19:03:07.240Z,99.90
2022-07-28T19:05:37.496Z,99.90
2022-07-28T19:08:14.224Z,99.90
2022-07-28T19:10:42.692Z,99.90
2022-07-28T19:13:16.308Z,99.90
2022-07-28T19:15:44.619Z,99.90
2022-07-28T19:18:14.753Z,99.90
2022-07-28T19:20:45.417Z,99.90
2022-07-28T19:23:15.537Z,99.90
2022-07-28T19:25:46.375Z,99.90
2022-07-28T19:28:19.841Z,99.90
2022-07-28T19:30:50.118Z,99.90
2022-07-28T19:33:24.467Z,99.90
2022-07-28T19:35:54.412Z,99.90
2022-07-28T19:38:28.108Z,99.90
2022-07-28T19:40:57.890Z,99.90
2022-07-28T19:43:26.334Z,99.90
2022-07-28T19:45:57.639Z,99.90
2022-07-28T19:48:26.264Z,99.90
2022-07-28T19:50:56.567Z,99.90
2022-07-28T19:53:32.282Z,99.90
2022-07-28T19:56:08.809Z,99.90
2022-07-28T19:58:37.997Z,99.90
2022-07-28T20:01:09.252Z,99.90
2022-07-28T20:04:01.542Z,99.90
2022-07-28T20:06:36.862Z,99.90
2022-07-28T20:09:05.630Z,99.90
2022-07-28T20:11:42.275Z,99.90
2022-07-28T20:14:15.309Z,99.90
2022-07-28T20:16:46.556Z,99.90
2022-07-28T20:19:15.134Z,99.90
2022-07-28T20:21:47.720Z,99.90
2022-07-28T20:24:27.867Z,99.90
2022-07-28T20:26:56.367Z,99.90
2022-07-28T20:29:24.627Z,99.90
2022-07-28T20:31:53.611Z,99.90
2022-07-28T20:34:26.690Z,99.90
2022-07-28T20:36:59.136Z,99.90
2022-07-28T20:39:44.509Z,99.90
2022-07-28T20:42:33.514Z,99.90
2022-07-28T20:45:01.907Z,99.90
2022-07-28T20:47:32.549Z,99.90
2022-07-28T20:50:01.112Z,99.90
2022-07-28T20:52:53.235Z,99.90
2022-07-28T20:55:24.526Z,99.90
2022-07-28T20:57:55.995Z,99.90
2022-07-28T21:00:25.519Z,99.90
2022-07-28T21:02:54.486Z,99.90
2022-07-28T21:05:34.786Z,99.90
2022-07-28T21:08:16.159Z,99.90
2022-07-28T21:10:45.497Z,99.90
2022-07-28T21:13:18.629Z,99.90
2022-07-28T21:15:47.037Z,99.90
2022-07-28T21:18:15.469Z,99.90
2022-07-28T21:20:43.719Z,99.90
2022-07-28T21:23:27.251Z,99.90
2022-07-28T21:25:57.513Z,99.90
2022-07-28T21:28:48.383Z,99.90
2022-07-28T21:31:24.230Z,99.90
2022-07-28T21:33:55.550Z,99.90
2022-07-28T21:36:23.816Z,99.90
2022-07-28T21:38:55.197Z,99.90
2022-07-28T21:41:27.550Z,99.90
2022-07-28T21:44:05.902Z,99.90
2022-07-28T21:46:42.495Z,99.90
2022-07-28T21:49:13.670Z,99.90
2022-07-28T21:51:44.552Z,99.90
2022-07-28T21:54:19.870Z,99.90
2022-07-28T21:56:50.301Z,99.90
2022-07-28T21:59:20.295Z,99.90
2022-07-28T22:01:48.751Z,99.90
2022-07-28T22:04:17.897Z,99.90
2022-07-28T22:06:48.752Z,99.90
2022-07-28T22:09:30.516Z,99.90
2022-07-28T22:12:03.918Z,99.90
2022-07-28T22:14:33.340Z,99.90
2022-07-28T22:17:03.378Z,99.90
2022-07-28T22:19:35.641Z,99.90
2022-07-28T22:22:05.867Z,99.90
2022-07-28T22:24:39.558Z,99.90
2022-07-28T22:27:14.077Z,99.90
2022-07-28T22:29:50.045Z,99.90
2022-07-28T22:32:28.714Z,99.90
2022-07-28T22:34:58.645Z,99.90
2022-07-28T22:37:28.687Z,99.90
2022-07-28T22:39:59.520Z,99.90
2022-07-28T22:42:27.968Z,99.90
2022-07-28T22:44:56.218Z,99.90
2022-07-28T22:47:24.910Z,99.90
2022-07-28T22:49:54.042Z,99.90
2022-07-28T22:52:28.787Z,99.90
2022-07-28T22:57:48.338Z,99.90
2022-07-28T23:00:17.796Z,99.90
2022-07-28T23:02:47.926Z,99.90
2022-07-28T23:05:32.983Z,99.90
2022-07-28T23:08:01.427Z,99.90
2022-07-28T23:10:32.309Z,99.90
2022-07-28T23:13:03.328Z,99.90
2022-07-28T23:15:40.371Z,99.90
2022-07-28T23:18:11.004Z,99.90
2022-07-28T23:20:40.232Z,99.90
2022-07-28T23:23:08.654Z,99.90
2022-07-28T23:25:43.404Z,99.90
2022-07-28T23:28:13.362Z,99.90
2022-07-28T23:30:46.134Z,99.90
2022-07-28T23:33:53.922Z,99.90
2022-07-28T23:36:04.333Z,99.90
2022-07-28T23:38:39.088Z,99.90
2022-07-28T23:41:20.040Z,99.90
2022-07-28T23:43:48.381Z,99.90
2022-07-28T23:46:18.574Z,99.90
2022-07-28T23:48:53.153Z,99.90
2022-07-28T23:51:47.221Z,99.90
2022-07-28T23:54:14.224Z,99.90
2022-07-28T23:56:48.990Z,99.90
2022-07-28T23:59:29.734Z,99.90
